BKK weather

Suvarnabhumi Airport
Bangkok, Bangkok Province, Thailand

Public forecast

Using degrees Celsius for public forecast. Weather courtesy of forecast.io.

Current aviation weather report (METAR) for Suvarnabhumi Airport

Retrieved 2019/10/18 09:30 UTC (25 minutes ago):

VTBS 180930Z 07010KT 9000 FEW020 33/22 Q1009 NOSIG

Aviation forecast (TAF) for Suvarnabhumi Airport

Retrieved 2019/10/18 06:00 UTC (4 hours ago):

TAF VTBS 180500Z 1806/1912 07010KT 9999 FEW040 BECMG 1816/1818 01005KT BECMG 1902/1904 07010KT